VCBI/CMB METAR and TAF weather

Enter ICAO airport designator
Station Type Date Time Source
VCBI METAR 2020/11/25 22:10 UTC NOAA

VCBI 252210Z 17004KT 140V230 9999 FEW018 25/24 Q1007 NOSIG


Station Type Date Time Source
VCBI Decoded METAR 2020/11/25 22:10 UTC NOAA

Katunayake, Sri Lanka (VCBI) 07-10N 079-53E 8M
Nov 25, 2020 - 05:10 PM EST / 2020.11.25 2210 UTC
Wind: from the S (170 degrees) at 5 MPH (4 KT) (direction variable):0
Visibility: greater than 7 mile(s):0
Sky conditions: mostly clear
Temperature: 77 F (25 C)
Dew Point: 75 F (24 C)
Relative Humidity: 94%
Pressure (altimeter): 29.74 in. Hg (1007 hPa)
ob: VCBI 252210Z 17004KT 140V230 9999 FEW018 25/24 Q1007 NOSIG
cycle: 22

Station Type Date Time Source
VCBI TAF 2020/11/25 18:09 UTC NOAA

TAF TAF VCBI 251700Z 2518/2624 17008KT 9999 SCT017 TX32/2607Z TN25/2600Z
TEMPO 2600/2602 6000
BECMG 2604/2606 25010KT

Example: see airport list